Flight Track Log - Related Links

Times and Time Zones

All times are in EDT time to prevent confusion due to time zone crossing. See the AAL1457 flight status page for this flight to view local times or setup timezone preferences in your user account.

Time Position Orientation Groundspeed Altitude Reporting Facility
EDT Latitude Longitude Course Direction KTS MPH feet Rate Location/Type
Thu 10:39:53 PM 32.9000 -97.0500 196° South 159 183 1,000  Level Dallas / Fort Worth TRACON
Thu 10:40:41 PM 32.9500 -97.0500 360° North 187 215 2,500 1,944 Climbing Dallas / Fort Worth TRACON
Thu 10:41:41 PM 33.0000 -97.0833 331° Northwest 257 296 4,500 2,350 Climbing Dallas / Fort Worth TRACON
Thu 10:42:41 PM 33.0000 -97.1667 270° West 272 313 7,200 2,467 Climbing Dallas / Fort Worth TRACON
Thu 10:43:11 PM 32.9836 -97.2053 243° Southwest 278 320 8,200 2,242 Climbing Fort Worth Center
Thu 10:44:12 PM 32.9003 -97.1956 174° South 304 350 10,600 2,016 Climbing Fort Worth Center
Thu 10:45:00 PM 32.3328 -97.0335 196° South  Level FlightAware Approximate
Thu 10:45:13 PM 32.8078 -97.1733 169° South 338 389 12,300  Level Fort Worth Center
Thu 10:46:15 PM 32.6969 -97.1500 170° South 371 427 14,700 2,341 Climbing Fort Worth Center
Thu 10:47:16 PM 32.5881 -97.1256 169° South 394 453 17,100 2,311 Climbing Fort Worth Center
Thu 10:48:17 PM 32.4700 -97.1000 170° South 408 470 19,400 2,195 Climbing Fort Worth Center
Thu 10:49:19 PM 32.3533 -97.0753 170° South 422 486 21,600 1,268 Climbing Fort Worth Center
Thu 10:50:20 PM 32.2317 -97.0589 173° South 430 495 22,000 148 Climbing Fort Worth Center
Thu 10:51:21 PM 32.1269 -97.0628 182° South 422 486 21,900 -49 Descending Fort Worth Center
Thu 10:52:23 PM 32.0100 -97.0672 182° South 421 484 21,900 49 Level Fort Worth Center
Thu 10:53:24 PM 31.8800 -97.0722 182° South 424 488 22,000 49 Climbing Fort Worth Center
Thu 10:54:25 PM 31.7617 -97.0764 182° South 424 488 22,000  Level Fort Worth Center
Thu 10:55:27 PM 31.6419 -97.0789 181° South 426 490 22,000  Level Fort Worth Center
Thu 10:56:28 PM 31.5231 -97.0867 183° South 427 491 22,000  Level Fort Worth Center
Thu 10:57:30 PM 31.4111 -97.1292 198° South 422 486 22,000  Level Fort Worth Center
Thu 10:58:31 PM 31.3003 -97.1736 199° South 422 486 22,000 -689 Level Fort Worth Center
Thu 10:59:32 PM 31.1675 -97.2256 199° South 422 486 20,600 -1,805 Descending Fort Worth Center
Thu 11:00:34 PM 31.0606 -97.2675 199° South 413 475 18,300 -2,146 Descending Fort Worth Center
Thu 11:01:35 PM 30.9569 -97.3106 200° South 412 474 16,200 -2,098 Descending Fort Worth Center
Thu 11:02:37 PM 30.8539 -97.3475 197° South 407 468 14,000 -1,964 Descending Fort Worth Center
Thu 11:03:25 PM 30.7761 -97.3769 198° South 386 444 12,600 -1,486 Descending Houston Center
Thu 11:04:26 PM 30.6814 -97.4144 199° South 369 425 11,300 -1,082 Descending Houston Center
Thu 11:05:27 PM 30.5817 -97.4525 198° South 321 369 10,400 -1,131 Descending Houston Center
Thu 11:06:28 PM 30.5042 -97.4819 198° South 299 344 9,000 -1,279 Descending Houston Center
Thu 11:07:29 PM 30.4258 -97.4917 186° South 291 335 7,800 -1,033 Descending Houston Center
Thu 11:08:30 PM 30.3506 -97.4958 183° South 276 318 6,900 -836 Descending Houston Center
Thu 11:09:31 PM 30.2872 -97.5033 186° South 242 278 6,100 -1,180 Descending Houston Center
Thu 11:10:32 PM 30.2267 -97.5103 186° South 221 254 4,500 -1,328 Descending Houston Center
Thu 11:11:33 PM 30.1644 -97.5208 188° South 221 254 3,400 -1,033 Descending Houston Center
Thu 11:12:34 PM 30.1019 -97.5331 190° South 222 255 2,400 -689 Descending Houston Center
Thu 11:13:35 PM 30.0536 -97.5717 215° Southwest 227 261 2,000 -98 Descending Houston Center
Thu 11:14:36 PM 30.0731 -97.6253 293° West 198 228 2,200 -197 Climbing Houston Center
Thu 11:15:37 PM 30.1133 -97.6564 326° Northwest 188 216 1,600 -639 Descending Houston Center
Thu 11:16:38 PM 30.1525 -97.6558 North 155 178 900 -689 Descending Houston Center

Login

Don't have an account? Register now (free) for customized features, flight alerts, and more!